createdAt,value
2023-03-11T00:02:19.757Z,23.23
2023-03-11T00:04:49.503Z,23.25
2023-03-11T00:07:19.135Z,23.26
2023-03-11T00:09:48.797Z,23.27
2023-03-11T00:12:18.379Z,23.28
2023-03-11T00:14:47.969Z,23.32
2023-03-11T00:17:17.570Z,23.30
2023-03-11T00:19:47.220Z,23.28
2023-03-11T00:22:16.851Z,23.27
2023-03-11T00:24:46.481Z,23.28
2023-03-11T00:27:16.099Z,23.27
2023-03-11T00:29:45.648Z,23.30
2023-03-11T00:32:15.488Z,23.28
2023-03-11T00:34:45.101Z,23.31
2023-03-11T00:37:14.742Z,23.31
2023-03-11T00:39:44.262Z,23.30
2023-03-11T00:42:13.855Z,23.36
2023-03-11T00:44:44.071Z,23.36
2023-03-11T00:47:14.106Z,23.41
2023-03-11T00:49:43.845Z,23.47
2023-03-11T00:52:13.422Z,23.47
2023-03-11T00:54:43.116Z,23.43
2023-03-11T00:57:12.737Z,23.50
2023-03-11T00:59:42.303Z,23.50
2023-03-11T01:02:11.860Z,23.52
2023-03-11T01:04:41.600Z,23.55
2023-03-11T01:07:11.472Z,23.55
2023-03-11T01:09:41.159Z,23.54
2023-03-11T01:12:10.917Z,23.56
2023-03-11T01:14:40.515Z,23.55
2023-03-11T01:17:10.125Z,23.58
2023-03-11T01:19:39.696Z,23.58
2023-03-11T01:22:09.288Z,23.61
2023-03-11T01:24:38.870Z,23.62
2023-03-11T01:27:08.567Z,23.62
2023-03-11T01:29:38.193Z,23.62
2023-03-11T01:32:08.476Z,23.63
2023-03-11T01:34:38.201Z,23.65
2023-03-11T01:37:07.873Z,23.64
2023-03-11T01:39:37.516Z,23.66
2023-03-11T01:42:07.451Z,23.68
2023-03-11T01:44:37.041Z,23.66
2023-03-11T01:47:06.591Z,23.63
2023-03-11T01:49:36.197Z,23.65
2023-03-11T01:52:09.235Z,23.68
2023-03-11T01:54:40.899Z,23.68
2023-03-11T01:57:12.825Z,23.69
2023-03-11T01:59:44.600Z,23.69
2023-03-11T02:02:32.151Z,23.69
2023-03-11T02:05:03.215Z,23.71
2023-03-11T02:07:32.963Z,23.72
2023-03-11T02:10:03.706Z,23.70
2023-03-11T02:12:34.130Z,23.69
2023-03-11T02:15:03.846Z,23.73
2023-03-11T02:17:34.661Z,23.72
2023-03-11T02:20:30.257Z,23.70
2023-03-11T02:22:59.856Z,23.75
2023-03-11T02:25:41.492Z,23.73
2023-03-11T02:28:12.584Z,23.72
2023-03-11T02:30:45.315Z,23.70
2023-03-11T02:33:15.344Z,23.72
2023-03-11T02:35:45.102Z,23.74
2023-03-11T02:38:15.577Z,23.74
2023-03-11T02:40:54.093Z,23.75
2023-03-11T02:43:29.708Z,23.76
2023-03-11T02:45:59.324Z,23.76
2023-03-11T02:48:28.887Z,23.77
2023-03-11T02:50:58.490Z,23.78
2023-03-11T02:53:29.725Z,23.77
2023-03-11T02:55:59.312Z,23.78
2023-03-11T02:58:28.913Z,23.76
2023-03-11T03:00:58.551Z,23.77
2023-03-11T03:03:28.161Z,23.76
2023-03-11T03:05:57.721Z,23.78
2023-03-11T03:08:27.354Z,23.80
2023-03-11T03:10:57.010Z,23.79
2023-03-11T03:13:26.730Z,23.79
2023-03-11T03:15:56.517Z,23.79
2023-03-11T03:18:26.166Z,23.80
2023-03-11T03:20:55.819Z,23.79
2023-03-11T03:23:25.444Z,23.81
2023-03-11T03:25:55.112Z,23.78
2023-03-11T03:28:24.717Z,23.78
2023-03-11T03:30:54.261Z,23.78
2023-03-11T03:33:23.868Z,23.80
2023-03-11T03:35:53.521Z,23.80
2023-03-11T03:38:23.142Z,23.80
2023-03-11T03:40:52.820Z,23.81
2023-03-11T03:43:22.394Z,23.82
2023-03-11T03:46:02.234Z,23.82
2023-03-11T03:48:32.012Z,23.82
2023-03-11T03:51:12.129Z,23.81
2023-03-11T03:53:41.808Z,23.81
2023-03-11T03:56:15.947Z,23.80
2023-03-11T03:58:44.934Z,23.78
2023-03-11T04:01:14.851Z,23.78
2023-03-11T04:03:44.641Z,23.80
2023-03-11T04:06:19.482Z,23.79
2023-03-11T04:08:49.134Z,23.81
2023-03-11T04:11:18.700Z,23.81
2023-03-11T04:13:48.433Z,23.82
2023-03-11T04:16:24.775Z,23.83
2023-03-11T04:18:54.452Z,23.81
2023-03-11T04:21:24.049Z,23.83
2023-03-11T04:23:53.626Z,23.82
2023-03-11T04:26:23.242Z,23.83
2023-03-11T04:28:52.837Z,23.84
2023-03-11T04:31:22.475Z,23.84
2023-03-11T04:33:52.100Z,23.87
2023-03-11T04:36:21.821Z,23.84
2023-03-11T04:38:51.406Z,23.86
2023-03-11T04:41:21.109Z,23.86
2023-03-11T04:43:50.770Z,23.87
2023-03-11T04:46:20.375Z,23.87
2023-03-11T04:48:50.080Z,23.87
2023-03-11T04:51:19.722Z,23.89
2023-03-11T04:53:49.325Z,23.88
2023-03-11T04:56:18.841Z,23.88
2023-03-11T04:58:48.392Z,23.88
2023-03-11T05:01:18.125Z,23.87
2023-03-11T05:03:48.653Z,23.89
2023-03-11T05:06:18.239Z,23.89
2023-03-11T05:08:48.050Z,23.90
2023-03-11T05:11:17.669Z,23.90
2023-03-11T05:13:47.314Z,23.90
2023-03-11T05:16:16.961Z,23.91
2023-03-11T05:18:46.678Z,23.90
2023-03-11T05:21:16.468Z,23.94
2023-03-11T05:23:46.949Z,23.93
2023-03-11T05:26:16.526Z,23.91
2023-03-11T05:28:46.115Z,23.90
2023-03-11T05:31:15.788Z,23.88
2023-03-11T05:33:45.447Z,23.92
2023-03-11T05:36:15.056Z,23.89
2023-03-11T05:38:44.672Z,23.90
2023-03-11T05:41:14.224Z,23.88
2023-03-11T05:43:43.824Z,23.89
2023-03-11T05:46:14.497Z,23.88
2023-03-11T05:48:44.188Z,23.91
2023-03-11T05:51:13.926Z,23.90
2023-03-11T05:53:50.329Z,23.88
2023-03-11T05:56:21.834Z,23.88
2023-03-11T05:58:51.481Z,23.87
2023-03-11T06:01:22.402Z,23.93
2023-03-11T06:03:52.078Z,23.92
2023-03-11T06:06:22.177Z,23.90
2023-03-11T06:08:51.834Z,23.87
2023-03-11T06:11:21.548Z,23.88
2023-03-11T06:13:51.156Z,23.90
2023-03-11T06:16:20.883Z,23.90
2023-03-11T06:18:50.791Z,23.89
2023-03-11T06:21:22.116Z,23.90
2023-03-11T06:23:52.141Z,23.92
2023-03-11T06:26:22.459Z,23.92
2023-03-11T06:28:52.324Z,23.91
2023-03-11T06:31:24.187Z,23.90
2023-03-11T06:33:53.936Z,23.89
2023-03-11T06:36:23.543Z,23.91
2023-03-11T06:38:56.157Z,23.92
2023-03-11T06:41:25.715Z,23.91
2023-03-11T06:43:55.414Z,23.90
2023-03-11T06:46:25.494Z,23.92
2023-03-11T06:48:55.093Z,23.90
2023-03-11T06:51:24.774Z,23.91
2023-03-11T06:53:55.398Z,23.89
2023-03-11T06:56:25.234Z,23.87
2023-03-11T06:58:55.220Z,23.89
2023-03-11T07:01:26.214Z,23.89
2023-03-11T07:03:55.902Z,23.88
2023-03-11T07:06:27.560Z,23.86
2023-03-11T07:08:57.215Z,23.88
2023-03-11T07:11:27.940Z,23.88
2023-03-11T07:13:57.597Z,23.87
2023-03-11T07:16:28.658Z,23.87
2023-03-11T07:19:00.624Z,23.86
2023-03-11T07:21:31.213Z,23.88
2023-03-11T07:24:02.291Z,23.87
2023-03-11T07:26:32.369Z,23.87
2023-03-11T07:29:01.987Z,23.87
2023-03-11T07:31:33.641Z,23.87
2023-03-11T07:34:04.890Z,23.88
2023-03-11T07:36:34.661Z,23.85
2023-03-11T07:39:06.164Z,23.88
2023-03-11T07:41:36.985Z,23.87
2023-03-11T07:44:08.123Z,23.85
2023-03-11T07:46:39.437Z,23.86
2023-03-11T07:49:09.140Z,23.86
2023-03-11T07:51:39.761Z,23.86
2023-03-11T07:54:09.398Z,23.88
2023-03-11T07:56:38.960Z,23.86
2023-03-11T07:59:08.555Z,23.84
2023-03-11T08:01:38.162Z,23.85
2023-03-11T08:04:08.698Z,23.87
2023-03-11T08:06:38.969Z,23.87
2023-03-11T08:09:10.553Z,23.86
2023-03-11T08:11:40.355Z,23.85
2023-03-11T08:14:10.495Z,23.84
2023-03-11T08:16:41.393Z,23.84
2023-03-11T08:19:13.780Z,23.83
2023-03-11T08:21:43.450Z,23.83
2023-03-11T08:24:14.447Z,23.82
2023-03-11T08:26:44.156Z,23.85
2023-03-11T08:29:13.782Z,23.88
2023-03-11T08:31:43.420Z,23.85
2023-03-11T08:34:13.163Z,23.87
2023-03-11T08:36:42.884Z,23.86
2023-03-11T08:39:12.473Z,23.83
2023-03-11T08:41:42.130Z,23.82
2023-03-11T08:44:11.793Z,23.82
2023-03-11T08:46:41.748Z,23.84
2023-03-11T08:49:11.537Z,23.84
2023-03-11T08:51:41.169Z,23.84
2023-03-11T08:54:10.782Z,23.84
2023-03-11T08:56:40.443Z,23.83
2023-03-11T08:59:10.217Z,23.83
2023-03-11T09:01:39.874Z,23.83
2023-03-11T09:04:09.578Z,23.82
2023-03-11T09:06:39.221Z,23.82
2023-03-11T09:09:08.795Z,23.81
2023-03-11T09:11:38.990Z,23.80
2023-03-11T09:14:08.556Z,23.80
2023-03-11T09:16:38.197Z,23.79
2023-03-11T09:19:09.030Z,23.80
2023-03-11T09:21:39.223Z,23.79
2023-03-11T09:24:09.388Z,23.80
2023-03-11T09:26:38.954Z,23.80
2023-03-11T09:29:08.555Z,23.81
2023-03-11T09:31:40.112Z,23.80
2023-03-11T09:34:09.723Z,23.80
2023-03-11T09:36:39.389Z,23.81
2023-03-11T09:39:09.041Z,23.78
2023-03-11T09:41:58.918Z,23.77
2023-03-11T09:45:06.586Z,23.75
2023-03-11T09:47:40.784Z,23.73
2023-03-11T09:50:18.105Z,23.76
2023-03-11T09:53:11.946Z,23.70
2023-03-11T09:56:08.237Z,23.69
2023-03-11T09:58:46.886Z,23.64
2023-03-11T10:01:20.812Z,23.69
2023-03-11T10:03:50.609Z,23.69
2023-03-11T10:06:20.900Z,23.71
2023-03-11T10:09:19.711Z,23.71
2023-03-11T10:12:27.513Z,23.61
2023-03-11T10:15:30.027Z,23.64
2023-03-11T10:18:00.335Z,23.66
2023-03-11T10:20:33.431Z,23.66
2023-03-11T10:23:24.388Z,23.65
2023-03-11T10:26:05.893Z,23.62
2023-03-11T10:28:40.664Z,23.65
2023-03-11T10:31:38.712Z,23.62
2023-03-11T10:34:28.790Z,23.61
2023-03-11T10:36:58.321Z,23.62
2023-03-11T10:39:28.043Z,23.63
2023-03-11T10:42:05.101Z,23.60
2023-03-11T10:44:38.453Z,23.61
2023-03-11T10:47:09.258Z,23.56
2023-03-11T10:49:38.823Z,23.58
2023-03-11T10:52:08.700Z,23.60
2023-03-11T10:54:41.222Z,23.56
2023-03-11T10:57:40.313Z,23.59
2023-03-11T11:00:18.760Z,23.54
2023-03-11T11:03:05.942Z,23.43
2023-03-11T11:05:36.804Z,23.39
2023-03-11T11:08:19.272Z,23.36
2023-03-11T11:11:12.272Z,23.32
2023-03-11T11:13:41.880Z,23.32
2023-03-11T11:16:23.746Z,23.30
2023-03-11T11:19:01.965Z,23.30
2023-03-11T11:21:45.752Z,23.28
2023-03-11T11:24:25.976Z,23.28
2023-03-11T11:27:13.700Z,23.27
2023-03-11T11:29:43.621Z,23.25
2023-03-11T11:32:42.705Z,23.25
2023-03-11T11:35:21.345Z,23.25
2023-03-11T11:37:56.189Z,23.25
2023-03-11T11:40:31.435Z,23.26
2023-03-11T11:43:07.538Z,23.23
2023-03-11T11:45:59.438Z,23.23
2023-03-11T11:48:35.686Z,23.26
2023-03-11T11:51:10.435Z,23.25
2023-03-11T11:53:44.016Z,23.25
2023-03-11T11:56:13.638Z,23.26
2023-03-11T11:58:43.245Z,23.25
2023-03-11T12:01:21.613Z,23.25
2023-03-11T12:04:00.001Z,23.25
2023-03-11T12:06:37.695Z,23.23
2023-03-11T12:09:28.676Z,23.21
2023-03-11T12:12:07.361Z,23.23
2023-03-11T12:15:00.851Z,23.21
2023-03-11T12:17:30.408Z,23.21
2023-03-11T12:20:10.191Z,23.21
2023-03-11T12:22:54.576Z,23.23
2023-03-11T12:25:51.400Z,23.22
2023-03-11T12:28:36.704Z,23.21
2023-03-11T12:31:10.572Z,23.22
2023-03-11T12:33:44.337Z,23.21
2023-03-11T12:36:43.585Z,23.23
2023-03-11T12:39:22.330Z,23.22
2023-03-11T12:41:52.062Z,23.21
2023-03-11T12:44:31.232Z,23.22
2023-03-11T12:47:00.751Z,23.23
2023-03-11T12:49:53.392Z,23.22
2023-03-11T12:52:28.065Z,23.20
2023-03-11T12:55:03.644Z,23.21
2023-03-11T12:57:39.409Z,23.20
2023-03-11T13:00:27.343Z,23.21
2023-03-11T13:03:31.105Z,23.20
2023-03-11T13:06:22.146Z,23.18
2023-03-11T13:08:57.950Z,23.19
2023-03-11T13:11:36.677Z,23.17
2023-03-11T13:14:21.522Z,23.18
2023-03-11T13:16:51.168Z,23.17
2023-03-11T13:19:29.821Z,23.18
2023-03-11T13:22:01.119Z,23.18
2023-03-11T13:24:33.599Z,23.19
2023-03-11T13:27:07.536Z,23.17
2023-03-11T13:29:59.238Z,23.19
2023-03-11T13:32:51.265Z,23.19
2023-03-11T13:35:36.203Z,23.17
2023-03-11T13:38:14.808Z,23.16
2023-03-11T13:40:45.588Z,23.15
2023-03-11T13:43:28.125Z,23.17
2023-03-11T13:46:06.042Z,23.17
2023-03-11T13:48:49.972Z,23.17
2023-03-11T13:51:34.710Z,23.16
2023-03-11T13:54:13.050Z,23.15
2023-03-11T13:56:48.279Z,23.16
2023-03-11T13:59:25.562Z,23.15
2023-03-11T14:02:10.392Z,23.16
2023-03-11T14:04:39.988Z,23.14
2023-03-11T14:07:17.140Z,23.16
2023-03-11T14:09:46.780Z,23.16
2023-03-11T14:12:18.658Z,23.16
2023-03-11T14:14:53.101Z,23.15
2023-03-11T14:17:22.706Z,23.15
2023-03-11T14:20:26.665Z,23.15
2023-03-11T14:22:57.023Z,23.13
2023-03-11T14:25:32.568Z,23.15
2023-03-11T14:28:04.474Z,23.16
2023-03-11T14:30:35.673Z,23.15
2023-03-11T14:33:20.529Z,23.15
2023-03-11T14:35:58.355Z,23.13
2023-03-11T14:38:32.775Z,23.13
2023-03-11T14:41:06.637Z,23.11
2023-03-11T14:43:37.415Z,23.13
2023-03-11T14:46:07.344Z,23.13
2023-03-11T14:48:41.656Z,23.13
2023-03-11T14:51:16.629Z,23.12
2023-03-11T14:53:48.730Z,23.11
2023-03-11T14:56:23.232Z,23.11
2023-03-11T14:59:17.018Z,23.12
2023-03-11T15:01:46.702Z,23.13
2023-03-11T15:04:36.702Z,23.12
2023-03-11T15:07:06.542Z,23.13
2023-03-11T15:09:36.139Z,23.11
2023-03-11T15:12:06.757Z,23.10
2023-03-11T15:14:39.780Z,23.11
2023-03-11T15:17:36.104Z,23.12
2023-03-11T15:20:43.194Z,23.11
2023-03-11T15:23:21.891Z,23.10
2023-03-11T15:25:51.706Z,23.10
2023-03-11T15:28:26.670Z,23.10
2023-03-11T15:31:22.049Z,23.09
2023-03-11T15:33:53.240Z,23.12
2023-03-11T15:36:41.542Z,23.11
2023-03-11T15:39:15.276Z,23.09
2023-03-11T15:41:45.980Z,23.09
2023-03-11T15:44:26.109Z,23.11
2023-03-11T15:46:55.806Z,23.10
2023-03-11T15:49:25.387Z,23.10
2023-03-11T15:51:55.058Z,23.08
2023-03-11T15:54:24.685Z,23.08
2023-03-11T15:56:54.275Z,23.07
2023-03-11T15:59:23.986Z,23.09
2023-03-11T16:01:53.546Z,23.07
2023-03-11T16:04:23.505Z,23.08
2023-03-11T16:07:07.111Z,23.07
2023-03-11T16:09:37.293Z,23.08
2023-03-11T16:12:26.921Z,23.06
2023-03-11T16:14:56.583Z,23.07
2023-03-11T16:17:26.621Z,23.06
2023-03-11T16:19:58.209Z,23.05
2023-03-11T16:22:33.593Z,23.04
2023-03-11T16:25:03.769Z,23.04
2023-03-11T16:27:33.335Z,23.05
2023-03-11T16:30:03.186Z,23.03
2023-03-11T16:32:32.898Z,23.02
2023-03-11T16:35:02.554Z,23.02
2023-03-11T16:37:32.153Z,23.03
2023-03-11T16:40:01.865Z,23.00
2023-03-11T16:42:31.484Z,23.01
2023-03-11T16:45:03.483Z,23.01
2023-03-11T16:47:33.487Z,23.01
2023-03-11T16:50:03.129Z,23.01
2023-03-11T16:52:33.129Z,22.99
2023-03-11T16:55:02.790Z,23.01
2023-03-11T16:57:32.424Z,23.02
2023-03-11T17:00:02.020Z,23.02
2023-03-11T17:02:31.646Z,22.99
2023-03-11T17:05:01.946Z,22.99
2023-03-11T17:07:31.495Z,23.01
2023-03-11T17:10:01.508Z,22.99
2023-03-11T17:12:31.268Z,22.97
2023-03-11T17:15:00.901Z,22.99
2023-03-11T17:17:30.565Z,22.98
2023-03-11T17:20:00.244Z,22.97
2023-03-11T17:22:29.876Z,22.96
2023-03-11T17:24:59.463Z,22.95
2023-03-11T17:27:33.656Z,22.97
2023-03-11T17:30:03.170Z,22.99
2023-03-11T17:32:33.139Z,22.92
2023-03-11T17:35:02.969Z,22.92
2023-03-11T17:37:32.670Z,22.94
2023-03-11T17:40:02.332Z,22.93
2023-03-11T17:45:01.306Z,22.93
2023-03-11T17:47:31.009Z,22.93
2023-03-11T17:50:00.707Z,22.92
2023-03-11T17:52:30.341Z,22.93
2023-03-11T17:55:00.049Z,22.93
2023-03-11T17:57:32.201Z,22.92
2023-03-11T18:00:07.413Z,22.94
2023-03-11T18:02:36.981Z,22.92
2023-03-11T18:05:06.921Z,22.92
2023-03-11T18:10:10.774Z,22.90
2023-03-11T18:12:40.689Z,22.92
2023-03-11T18:15:16.006Z,22.93
2023-03-11T18:17:45.632Z,22.92
2023-03-11T18:20:15.460Z,22.93
2023-03-11T18:22:48.275Z,22.91
2023-03-11T18:25:17.891Z,22.93
2023-03-11T18:27:47.480Z,22.92
2023-03-11T18:30:17.322Z,22.93
2023-03-11T18:32:47.060Z,22.91
2023-03-11T18:35:19.049Z,22.92
2023-03-11T18:37:48.617Z,22.93
2023-03-11T18:40:18.290Z,22.89
2023-03-11T18:42:47.888Z,22.90
2023-03-11T18:47:46.382Z,22.92
2023-03-11T18:50:15.955Z,22.92
2023-03-11T18:52:45.571Z,22.90
2023-03-11T18:55:15.246Z,22.90
2023-03-11T19:00:14.994Z,22.91
2023-03-11T19:02:45.070Z,22.92
2023-03-11T19:05:14.693Z,22.90
2023-03-11T19:07:44.328Z,22.89
2023-03-11T19:10:14.235Z,22.90
2023-03-11T19:12:44.779Z,22.90
2023-03-11T19:15:14.933Z,22.89
2023-03-11T19:17:46.627Z,22.89
2023-03-11T19:20:21.365Z,22.91
2023-03-11T19:22:51.050Z,22.89
2023-03-11T19:25:22.698Z,22.90
2023-03-11T19:27:52.260Z,22.88
2023-03-11T19:30:22.693Z,22.89
2023-03-11T19:32:55.485Z,22.89
2023-03-11T19:35:25.685Z,22.87
2023-03-11T19:37:57.961Z,22.87
2023-03-11T19:40:31.314Z,22.88
2023-03-11T19:43:01.285Z,22.86
2023-03-11T19:45:34.252Z,22.86
2023-03-11T19:48:03.946Z,22.86
2023-03-11T19:50:33.484Z,22.85
2023-03-11T19:53:03.159Z,22.85
2023-03-11T19:55:32.872Z,22.85
2023-03-11T19:58:02.484Z,22.86
2023-03-11T20:00:32.142Z,22.86
2023-03-11T20:03:03.807Z,22.88
2023-03-11T20:05:33.461Z,22.87
2023-03-11T20:08:03.050Z,22.87
2023-03-11T20:10:32.997Z,22.87
2023-03-11T20:13:03.980Z,22.89
2023-03-11T20:15:33.681Z,22.88
2023-03-11T20:18:04.992Z,22.90
2023-03-11T20:20:34.886Z,22.89
2023-03-11T20:25:33.895Z,22.92
2023-03-11T20:28:03.619Z,22.92
2023-03-11T20:30:33.218Z,22.90
2023-03-11T20:33:02.955Z,22.90
2023-03-11T20:35:32.787Z,22.92
2023-03-11T20:38:02.634Z,22.92
2023-03-11T20:45:30.376Z,22.91
2023-03-11T20:48:00.031Z,22.93
2023-03-11T20:50:29.604Z,22.92
2023-03-11T20:52:59.413Z,22.93
2023-03-11T20:55:28.987Z,22.92
2023-03-11T20:57:58.727Z,22.90
2023-03-11T21:00:28.384Z,22.90
2023-03-11T21:05:26.932Z,22.90
2023-03-11T21:07:56.556Z,22.90
2023-03-11T21:10:26.207Z,22.89
2023-03-11T21:12:56.037Z,22.90
2023-03-11T21:15:25.668Z,22.89
2023-03-11T21:17:55.237Z,22.90
2023-03-11T21:20:25.177Z,22.89
2023-03-11T21:22:54.813Z,22.89
2023-03-11T21:25:24.549Z,22.89
2023-03-11T21:27:54.376Z,22.90
2023-03-11T21:30:24.046Z,22.89
2023-03-11T21:32:53.761Z,22.90
2023-03-11T21:35:23.503Z,22.90
2023-03-11T21:37:53.443Z,22.89
2023-03-11T21:40:23.180Z,22.89
2023-03-11T21:42:53.032Z,22.89
2023-03-11T21:45:22.685Z,22.90
2023-03-11T21:47:52.341Z,22.89
2023-03-11T21:50:22.042Z,22.89
2023-03-11T21:52:51.652Z,22.89
2023-03-11T21:55:21.380Z,22.89
2023-03-11T21:57:51.090Z,22.89
2023-03-11T22:00:21.031Z,22.89
2023-03-11T22:02:50.690Z,22.88
2023-03-11T22:05:20.474Z,22.86
2023-03-11T22:07:50.171Z,22.86
2023-03-11T22:10:20.192Z,22.86
2023-03-11T22:12:50.013Z,22.86
2023-03-11T22:15:19.850Z,22.85
2023-03-11T22:17:49.584Z,22.85
2023-03-11T22:20:19.657Z,22.85
2023-03-11T22:22:49.295Z,22.82
2023-03-11T22:25:19.036Z,22.83
2023-03-11T22:27:48.620Z,22.82
2023-03-11T22:30:18.328Z,22.81
2023-03-11T22:32:48.025Z,22.80
2023-03-11T22:35:18.124Z,22.80
2023-03-11T22:37:47.744Z,22.80
2023-03-11T22:40:17.328Z,22.78
2023-03-11T22:42:46.854Z,22.77
2023-03-11T22:45:16.453Z,22.74
2023-03-11T22:47:46.024Z,22.75
2023-03-11T22:50:15.585Z,22.78
2023-03-11T22:52:45.149Z,22.76
2023-03-11T22:55:14.789Z,22.77
2023-03-11T22:57:44.442Z,22.78
2023-03-11T23:00:18.624Z,22.75
2023-03-11T23:02:48.047Z,22.75
2023-03-11T23:05:17.796Z,22.73
2023-03-11T23:07:47.420Z,22.73
2023-03-11T23:10:19.091Z,22.73
2023-03-11T23:12:50.545Z,22.75
2023-03-11T23:15:20.708Z,22.75
2023-03-11T23:17:50.405Z,22.74
2023-03-11T23:20:20.206Z,22.75
2023-03-11T23:22:49.780Z,22.74
2023-03-11T23:25:19.662Z,22.75
2023-03-11T23:27:49.312Z,22.77
2023-03-11T23:30:18.987Z,22.75
2023-03-11T23:32:48.641Z,22.74
2023-03-11T23:35:18.196Z,22.74
2023-03-11T23:37:51.806Z,22.71
2023-03-11T23:40:21.428Z,22.72
2023-03-11T23:42:52.204Z,22.71
2023-03-11T23:45:21.854Z,22.73
2023-03-11T23:47:51.480Z,22.72
2023-03-11T23:50:21.135Z,22.71
2023-03-11T23:52:50.723Z,22.68
2023-03-11T23:55:20.306Z,22.69
2023-03-11T23:57:49.922Z,22.70
